Terminal Aerodrome Forecast
Issued by NWS Central Illinois

Home | Current Version | Previous Version | Text Only | Print | Product List | Glossary On
Versions: 1 2 3 4 5 6 7 8 9 10 11 12 13 14 15 16 17 18 19 20 21 22
528
FTUS43 KILX 141332 AAA
TAFSPI
TAF AMD
KSPI 141332Z 1414/1512 12014G22KT P6SM SCT012 OVC035
     FM141500 14014G22KT 3/4SM -SN BR BKN006 OVC012
     FM142000 14014KT 1 1/2SM -SN BR OVC006
     FM150000 15010KT 4SM BR VCSH BKN006 OVC012=

USA.gov is the U.S. government's official web portal to all federal, state and local government web resources and services.